Time;durP1;ratioP1;P1;durP2;ratioP2;P2;SDS_P1;SDS_P2;PMS_P1;PMS_P2;Temp;Humidity;BMP_temperature;BMP_pressure;BME280_temperature;BME280_humidity;BME280_pressure;Samples;Min_cycle;Max_cycle;Signal;HPM_P1;HPM_P2
2022/11/01 00:00:22;;;;;;;;;;;16.80;99.90;;;;;;5042844;28;19925;-74
2022/11/01 00:02:49;;;;;;;;;;;16.80;99.90;;;;;;5052970;28;20004;-71
2022/11/01 00:05:16;;;;;;;;;;;16.80;99.90;;;;;;5053212;28;20028;-74
2022/11/01 00:07:44;;;;;;;;;;;16.80;99.90;;;;;;5053442;28;19924;-72
2022/11/01 00:10:10;;;;;;;;;;;16.80;99.90;;;;;;5053357;28;19935;-74
2022/11/01 00:12:37;;;;;;;;;;;16.90;99.90;;;;;;5053444;28;19931;-73
2022/11/01 00:15:04;;;;;;;;;;;16.90;99.90;;;;;;5048632;28;19924;-71
2022/11/01 00:17:31;;;;;;;;;;;16.90;99.90;;;;;;5049844;28;20323;-72
2022/11/01 00:19:57;;;;;;;;;;;16.80;99.90;;;;;;5052517;28;20559;-73
2022/11/01 00:22:25;;;;;;;;;;;16.80;99.90;;;;;;5043343;28;19925;-73
2022/11/01 00:24:53;;;;;;;;;;;16.80;99.90;;;;;;5032954;28;20394;-73
2022/11/01 00:27:19;;;;;;;;;;;16.80;99.90;;;;;;5043400;28;19931;-73
2022/11/01 00:29:46;;;;;;;;;;;16.80;99.90;;;;;;5053567;28;19946;-73
2022/11/01 00:32:13;;;;;;;;;;;16.90;99.90;;;;;;5052824;28;20413;-72
2022/11/01 00:34:39;;;;;;;;;;;17.00;99.90;;;;;;5047187;28;19931;-72
2022/11/01 00:37:06;;;;;;;;;;;17.10;99.90;;;;;;5051762;28;19925;-73
2022/11/01 00:39:32;;;;;;;;;;;17.10;99.90;;;;;;5052508;28;19925;-72
2022/11/01 00:42:00;;;;;;;;;;;17.10;99.90;;;;;;5052638;28;20015;-72
2022/11/01 00:44:27;;;;;;;;;;;17.10;99.90;;;;;;5051603;28;19931;-72
2022/11/01 00:46:54;;;;;;;;;;;17.10;99.90;;;;;;5052269;28;20122;-72
2022/11/01 00:49:20;;;;;;;;;;;17.10;99.90;;;;;;5045519;28;20015;-72
2022/11/01 00:51:47;;;;;;;;;;;17.20;99.90;;;;;;5052168;28;19946;-72
2022/11/01 00:54:14;;;;;;;;;;;17.20;99.90;;;;;;5052313;28;20402;-72
2022/11/01 00:56:40;;;;;;;;;;;17.20;99.90;;;;;;5052176;28;19928;-72
2022/11/01 00:59:08;;;;;;;;;;;17.20;99.90;;;;;;5052309;28;19931;-73
2022/11/01 01:01:35;;;;;;;;;;;17.20;99.90;;;;;;5052003;28;19931;-73
2022/11/01 01:04:01;;;;;;;;;;;17.10;99.90;;;;;;5051815;28;19925;-72
2022/11/01 01:06:28;;;;;;;;;;;17.10;99.90;;;;;;5052287;28;20287;-73
2022/11/01 01:08:57;;;;;;;;;;;17.10;99.90;;;;;;5052524;28;20036;-73
2022/11/01 01:11:24;;;;;;;;;;;17.00;99.90;;;;;;5052200;28;19935;-72
2022/11/01 01:13:51;;;;;;;;;;;17.00;99.90;;;;;;5051955;28;19925;-72
2022/11/01 01:16:19;;;;;;;;;;;16.90;99.90;;;;;;5051558;28;19929;-73
2022/11/01 01:18:45;;;;;;;;;;;16.90;99.90;;;;;;5035125;28;19925;-72
2022/11/01 01:21:13;;;;;;;;;;;16.80;99.90;;;;;;5039034;28;19925;-73
2022/11/01 01:23:39;;;;;;;;;;;16.80;99.90;;;;;;5051817;28;19940;-73
2022/11/01 01:26:07;;;;;;;;;;;16.80;99.90;;;;;;5052061;28;19954;-73
2022/11/01 01:28:33;;;;;;;;;;;16.70;99.90;;;;;;5051324;28;19925;-72
2022/11/01 01:31:00;;;;;;;;;;;16.70;99.90;;;;;;5050897;28;19931;-72
2022/11/01 01:33:28;;;;;;;;;;;16.70;99.90;;;;;;5044548;28;19925;-73
2022/11/01 01:35:54;;;;;;;;;;;16.60;99.90;;;;;;5032629;28;19931;-72
2022/11/01 01:38:21;;;;;;;;;;;16.60;99.90;;;;;;5032491;28;19935;-73
2022/11/01 01:40:48;;;;;;;;;;;16.60;99.90;;;;;;5032358;28;19925;-72
2022/11/01 01:43:14;;;;;;;;;;;16.50;99.90;;;;;;5032428;28;20350;-72
2022/11/01 01:45:41;;;;;;;;;;;16.50;99.90;;;;;;5048423;28;19929;-72
2022/11/01 01:48:18;;;;;;;;;;;16.40;99.90;;;;;;5052224;28;19925;-73
2022/11/01 01:50:53;;;;;;;;;;;16.50;99.90;;;;;;5052382;28;19933;-72
2022/11/01 01:53:23;;;;;;;;;;;16.50;99.90;;;;;;5052262;28;19925;-72
2022/11/01 01:55:53;;;;;;;;;;;16.60;99.90;;;;;;5051324;28;19931;-73
2022/11/01 01:58:22;;;;;;;;;;;16.50;99.90;;;;;;5050943;28;20315;-72
2022/11/01 02:00:49;;;;;;;;;;;16.40;99.90;;;;;;5052177;28;20594;-72
2022/11/01 02:03:16;;;;;;;;;;;16.40;99.90;;;;;;5052170;28;19925;-72
2022/11/01 02:05:46;;;;;;;;;;;16.40;99.90;;;;;;5052437;28;19932;-72
2022/11/01 02:08:14;;;;;;;;;;;16.40;99.90;;;;;;5052052;28;19931;-72
2022/11/01 02:10:41;;;;;;;;;;;16.40;99.90;;;;;;5051269;28;19936;-72
2022/11/01 02:13:11;;;;;;;;;;;16.30;99.90;;;;;;5051118;28;19925;-72
2022/11/01 02:15:41;;;;;;;;;;;16.20;99.90;;;;;;5034718;28;19999;-72
2022/11/01 02:18:11;;;;;;;;;;;16.20;99.90;;;;;;5051477;28;20015;-72
2022/11/01 02:20:46;;;;;;;;;;;16.00;99.90;;;;;;5051269;28;20312;-72
2022/11/01 02:23:28;;;;;;;;;;;15.90;99.90;;;;;;5051153;28;20383;-71
2022/11/01 02:26:03;;;;;;;;;;;15.80;99.90;;;;;;5048795;28;19925;-71
2022/11/01 02:28:40;;;;;;;;;;;15.70;99.90;;;;;;5049707;28;19925;-71
2022/11/01 02:31:14;;;;;;;;;;;15.60;99.90;;;;;;5050289;28;19925;-71
2022/11/01 02:33:43;;;;;;;;;;;15.50;99.90;;;;;;5047143;28;19925;-71
2022/11/01 02:36:15;;;;;;;;;;;15.40;99.90;;;;;;5051311;28;19933;-71
2022/11/01 02:38:45;;;;;;;;;;;15.30;99.90;;;;;;5049539;28;20372;-72
2022/11/01 02:41:13;;;;;;;;;;;15.30;99.90;;;;;;5048809;28;19956;-72
2022/11/01 02:43:44;;;;;;;;;;;15.30;99.90;;;;;;5035353;28;20024;-72
2022/11/01 02:48:57;;;;;;;;;;;15.10;99.90;;;;;;5035301;28;19956;-72
2022/11/01 02:51:25;;;;;;;;;;;15.10;99.90;;;;;;5041152;28;19925;-72
2022/11/01 02:53:52;;;;;;;;;;;15.00;99.90;;;;;;5055034;28;19929;-71
2022/11/01 02:56:18;;;;;;;;;;;14.90;99.90;;;;;;5053106;28;20011;-71
2022/11/01 02:58:46;;;;;;;;;;;14.80;99.90;;;;;;5053041;28;20015;-71
2022/11/01 03:01:15;;;;;;;;;;;14.80;99.90;;;;;;5052748;28;19931;-71
2022/11/01 03:03:44;;;;;;;;;;;14.80;99.90;;;;;;5053237;28;19931;-71
2022/11/01 03:06:15;;;;;;;;;;;14.70;99.90;;;;;;5053401;28;19931;-71
2022/11/01 03:08:44;;;;;;;;;;;14.70;99.90;;;;;;5053869;28;19931;-72
2022/11/01 03:11:12;;;;;;;;;;;14.60;99.90;;;;;;5051130;28;19925;-71
2022/11/01 03:13:47;;;;;;;;;;;14.60;99.90;;;;;;5054035;28;20012;-71
2022/11/01 03:16:17;;;;;;;;;;;14.60;99.90;;;;;;5053664;28;19931;-72
2022/11/01 03:18:47;;;;;;;;;;;14.50;99.90;;;;;;5053981;28;19924;-71
2022/11/01 03:21:19;;;;;;;;;;;14.50;99.90;;;;;;5054062;28;19925;-72
2022/11/01 03:23:50;;;;;;;;;;;14.40;99.90;;;;;;5054933;28;19925;-72
2022/11/01 03:26:19;;;;;;;;;;;14.40;99.90;;;;;;5054176;28;19925;-71
2022/11/01 03:28:47;;;;;;;;;;;14.50;99.90;;;;;;5054266;28;19970;-71
2022/11/01 03:31:16;;;;;;;;;;;14.40;99.90;;;;;;5062109;28;20019;-72
2022/11/01 03:33:45;;;;;;;;;;;14.40;99.90;;;;;;5073782;28;20019;-72
2022/11/01 03:36:13;;;;;;;;;;;14.30;99.90;;;;;;5073955;28;19935;-71
2022/11/01 03:38:45;;;;;;;;;;;14.30;99.90;;;;;;5045450;28;20035;-73
2022/11/01 03:41:14;;;;;;;;;;;14.30;99.90;;;;;;5047906;28;19943;-73
2022/11/01 03:43:41;;;;;;;;;;;14.30;99.90;;;;;;5053121;28;20019;-72
2022/11/01 03:46:08;;;;;;;;;;;14.30;99.90;;;;;;5053545;28;20384;-71
2022/11/01 03:48:38;;;;;;;;;;;14.20;99.90;;;;;;5053784;28;20327;-72
2022/11/01 03:51:04;;;;;;;;;;;14.20;99.90;;;;;;5053932;28;19986;-72
2022/11/01 03:53:31;;;;;;;;;;;14.20;99.90;;;;;;5053052;28;20023;-72
2022/11/01 03:55:59;;;;;;;;;;;14.10;99.90;;;;;;5053299;28;20338;-72
2022/11/01 03:58:40;;;;;;;;;;;14.10;99.90;;;;;;5053015;28;19925;-72
2022/11/01 04:01:07;;;;;;;;;;;14.00;99.90;;;;;;5052489;28;20427;-72
2022/11/01 04:03:33;;;;;;;;;;;14.00;99.90;;;;;;5052987;28;19925;-72
2022/11/01 04:06:00;;;;;;;;;;;13.90;99.90;;;;;;5053674;28;19970;-72
2022/11/01 04:08:27;;;;;;;;;;;13.90;99.90;;;;;;5036047;28;19932;-72
2022/11/01 04:10:53;;;;;;;;;;;13.90;99.90;;;;;;5035799;28;19945;-72
2022/11/01 04:13:21;;;;;;;;;;;13.80;99.90;;;;;;5052564;28;19925;-72
2022/11/01 04:21:16;;;;;;;;;;;14.00;99.90;;;;;;5031231;28;19925;-72
2022/11/01 04:23:44;;;;;;;;;;;14.00;99.90;;;;;;5051703;28;20372;-72
2022/11/01 04:26:11;;;;;;;;;;;14.00;99.90;;;;;;5051796;28;20371;-72
2022/11/01 04:28:39;;;;;;;;;;;14.00;99.90;;;;;;5049029;28;20303;-72
2022/11/01 04:31:06;;;;;;;;;;;14.00;99.90;;;;;;5033148;28;19963;-71
2022/11/01 04:33:33;;;;;;;;;;;13.90;99.90;;;;;;5042019;28;19928;-71
2022/11/01 04:36:03;;;;;;;;;;;13.80;99.90;;;;;;5052410;28;19967;-71
2022/11/01 04:38:30;;;;;;;;;;;13.70;99.90;;;;;;5051102;28;19928;-72
2022/11/01 04:40:56;;;;;;;;;;;13.60;99.90;;;;;;5052353;28;19931;-72
2022/11/01 04:43:23;;;;;;;;;;;13.50;99.90;;;;;;5051469;28;19935;-72
2022/11/01 04:45:55;;;;;;;;;;;13.40;99.90;;;;;;5052441;28;19924;-72
2022/11/01 04:48:21;;;;;;;;;;;13.40;99.90;;;;;;5050514;28;20016;-72
2022/11/01 04:50:48;;;;;;;;;;;13.40;99.90;;;;;;5051995;28;20020;-72
2022/11/01 04:53:15;;;;;;;;;;;13.40;99.90;;;;;;5050256;28;19931;-72
2022/11/01 04:55:41;;;;;;;;;;;13.30;99.90;;;;;;5052746;28;20019;-72
2022/11/01 04:58:09;;;;;;;;;;;13.20;99.90;;;;;;5052021;28;20019;-73
2022/11/01 05:00:36;;;;;;;;;;;13.20;99.90;;;;;;5052901;28;19925;-72
2022/11/01 05:03:05;;;;;;;;;;;13.20;99.90;;;;;;5046926;28;20020;-72
2022/11/01 05:05:32;;;;;;;;;;;13.10;99.90;;;;;;5052122;28;20016;-72
2022/11/01 05:08:02;;;;;;;;;;;13.10;99.90;;;;;;5047628;28;19924;-72
2022/11/01 05:10:29;;;;;;;;;;;13.10;99.90;;;;;;5051725;28;19939;-72
2022/11/01 05:12:55;;;;;;;;;;;13.00;99.90;;;;;;5051383;28;19924;-71
2022/11/01 05:15:22;;;;;;;;;;;13.00;99.90;;;;;;5052046;28;19938;-72
2022/11/01 05:17:49;;;;;;;;;;;13.00;99.90;;;;;;5051096;28;20024;-71
2022/11/01 05:20:17;;;;;;;;;;;13.00;99.90;;;;;;5051286;28;19925;-73
2022/11/01 05:22:43;;;;;;;;;;;13.00;99.90;;;;;;5050478;28;19937;-72
2022/11/01 05:25:10;;;;;;;;;;;12.90;99.90;;;;;;5052375;28;20027;-73
2022/11/01 05:27:37;;;;;;;;;;;12.90;99.90;;;;;;5049162;28;19931;-73
2022/11/01 05:30:04;;;;;;;;;;;12.90;99.90;;;;;;5038248;28;19994;-71
2022/11/01 05:32:31;;;;;;;;;;;12.80;99.90;;;;;;5031717;28;19931;-72
2022/11/01 05:34:58;;;;;;;;;;;12.80;99.90;;;;;;5051294;28;19967;-73
2022/11/01 05:37:26;;;;;;;;;;;12.80;99.90;;;;;;5051657;28;20021;-72
2022/11/01 05:39:52;;;;;;;;;;;12.70;99.90;;;;;;5051872;28;20349;-70
2022/11/01 05:42:19;;;;;;;;;;;12.70;99.90;;;;;;5052283;28;19925;-72
2022/11/01 05:44:45;;;;;;;;;;;12.60;99.90;;;;;;5051880;28;19924;-71
2022/11/01 05:47:12;;;;;;;;;;;12.60;99.90;;;;;;5052216;28;20023;-72
2022/11/01 05:49:39;;;;;;;;;;;12.50;99.90;;;;;;5051916;28;19932;-71
2022/11/01 05:52:05;;;;;;;;;;;12.50;99.90;;;;;;5051994;28;19931;-72
2022/11/01 05:54:33;;;;;;;;;;;12.50;99.90;;;;;;5051577;28;20023;-72
2022/11/01 05:57:00;;;;;;;;;;;12.40;99.90;;;;;;5052185;28;19925;-72
2022/11/01 05:59:26;;;;;;;;;;;12.40;99.90;;;;;;5039201;28;19932;-72
2022/11/01 06:01:53;;;;;;;;;;;12.30;99.90;;;;;;5039542;28;19925;-72
2022/11/01 06:04:21;;;;;;;;;;;12.30;99.90;;;;;;5051675;28;20015;-72
2022/11/01 06:06:48;;;;;;;;;;;12.30;99.90;;;;;;5052008;28;20023;-72
2022/11/01 06:09:15;;;;;;;;;;;12.30;99.90;;;;;;5048894;28;19931;-72
2022/11/01 06:11:43;;;;;;;;;;;12.20;99.90;;;;;;5050988;28;19931;-72
2022/11/01 06:14:10;;;;;;;;;;;12.10;99.90;;;;;;5051708;28;20451;-72
2022/11/01 06:16:36;;;;;;;;;;;12.10;99.90;;;;;;5053776;28;19924;-73
2022/11/01 06:19:03;;;;;;;;;;;12.00;99.90;;;;;;5055408;28;20027;-72
2022/11/01 06:21:30;;;;;;;;;;;12.00;99.90;;;;;;5054373;28;19932;-74
2022/11/01 06:23:56;;;;;;;;;;;12.00;99.90;;;;;;5055736;28;20024;-74
2022/11/01 06:26:23;;;;;;;;;;;12.00;99.90;;;;;;5045738;28;19933;-74
2022/11/01 06:28:51;;;;;;;;;;;11.90;99.90;;;;;;5035964;28;20069;-74
2022/11/01 06:31:18;;;;;;;;;;;11.90;99.90;;;;;;5035698;28;19929;-74
2022/11/01 06:33:45;;;;;;;;;;;11.80;99.90;;;;;;5036824;28;20482;-73
2022/11/01 06:36:11;;;;;;;;;;;11.80;99.90;;;;;;5054623;28;20040;-73
2022/11/01 06:38:38;;;;;;;;;;;11.80;99.90;;;;;;5054397;28;20880;-74
2022/11/01 06:41:05;;;;;;;;;;;11.80;99.90;;;;;;5055032;28;20362;-74
2022/11/01 06:43:31;;;;;;;;;;;11.70;99.90;;;;;;5054233;28;19931;-74
2022/11/01 06:46:02;;;;;;;;;;;11.70;99.90;;;;;;5055149;28;20007;-74
2022/11/01 06:48:29;;;;;;;;;;;11.70;99.90;;;;;;5046756;28;20007;-74
2022/11/01 06:50:56;;;;;;;;;;;11.70;99.90;;;;;;5047035;28;19924;-71
2022/11/01 06:53:23;;;;;;;;;;;11.70;99.90;;;;;;5053566;28;20008;-72
2022/11/01 06:55:49;;;;;;;;;;;11.70;99.90;;;;;;5041839;28;20019;-72
2022/11/01 06:58:16;;;;;;;;;;;11.70;99.90;;;;;;5054737;28;19994;-73
2022/11/01 07:00:43;;;;;;;;;;;11.70;99.90;;;;;;5054824;28;20024;-72
2022/11/01 07:03:12;;;;;;;;;;;11.70;99.90;;;;;;5053449;28;20380;-72
2022/11/01 07:05:39;;;;;;;;;;;11.70;99.90;;;;;;5054979;28;20016;-71
2022/11/01 07:08:07;;;;;;;;;;;11.70;99.90;;;;;;5054831;28;19924;-72
2022/11/01 07:10:35;;;;;;;;;;;11.70;99.90;;;;;;5053371;28;19968;-72
2022/11/01 07:13:02;;;;;;;;;;;11.80;99.90;;;;;;5054854;28;20022;-72
2022/11/01 07:15:29;;;;;;;;;;;11.90;99.90;;;;;;5053413;28;20027;-71
2022/11/01 07:17:56;;;;;;;;;;;11.90;99.90;;;;;;5054086;28;19968;-71
2022/11/01 07:20:25;;;;;;;;;;;11.80;99.90;;;;;;5054192;28;20019;-72
2022/11/01 07:22:59;;;;;;;;;;;11.80;99.90;;;;;;5053616;28;19925;-72
2022/11/01 07:25:25;;;;;;;;;;;11.80;99.90;;;;;;5041638;28;20324;-72
2022/11/01 07:27:52;;;;;;;;;;;11.90;99.90;;;;;;5050118;28;20011;-72
2022/11/01 07:30:19;;;;;;;;;;;12.00;99.90;;;;;;5053977;28;19924;-73
2022/11/01 07:32:45;;;;;;;;;;;12.00;99.90;;;;;;5054428;28;20442;-72
2022/11/01 07:35:12;;;;;;;;;;;12.00;99.90;;;;;;5054417;28;20307;-72
2022/11/01 07:37:40;;;;;;;;;;;11.90;99.90;;;;;;5053601;28;20087;-72
2022/11/01 07:40:07;;;;;;;;;;;12.00;99.90;;;;;;5053872;28;19924;-72
2022/11/01 07:42:40;;;;;;;;;;;12.00;99.90;;;;;;5053068;28;19972;-72
2022/11/01 07:45:07;;;;;;;;;;;12.00;99.90;;;;;;5052275;28;20047;-72
2022/11/01 07:47:34;;;;;;;;;;;12.00;99.90;;;;;;5053772;28;20372;-72
2022/11/01 07:50:01;;;;;;;;;;;12.10;99.90;;;;;;5053982;28;19924;-72
2022/11/01 07:52:27;;;;;;;;;;;12.10;99.90;;;;;;5038891;28;19932;-72
2022/11/01 07:54:55;;;;;;;;;;;12.10;99.90;;;;;;5044729;28;19956;-72
2022/11/01 07:57:22;;;;;;;;;;;12.10;99.90;;;;;;5050930;28;20327;-72
2022/11/01 07:59:48;;;;;;;;;;;12.40;99.90;;;;;;5052641;28;19925;-72
2022/11/01 08:02:15;;;;;;;;;;;13.40;99.90;;;;;;5049894;28;19975;-72
2022/11/01 08:04:42;;;;;;;;;;;14.30;99.90;;;;;;5052703;28;19925;-72
2022/11/01 08:07:08;;;;;;;;;;;14.80;99.90;;;;;;5051985;28;19925;-73
2022/11/01 08:09:35;;;;;;;;;;;15.00;99.90;;;;;;5052509;28;20031;-72
2022/11/01 08:12:03;;;;;;;;;;;15.20;99.90;;;;;;5051453;28;19925;-72
2022/11/01 08:14:30;;;;;;;;;;;15.20;99.90;;;;;;5052934;28;19931;-73
2022/11/01 08:17:00;;;;;;;;;;;15.40;99.90;;;;;;5049591;28;19925;-73
2022/11/01 08:19:27;;;;;;;;;;;15.40;99.90;;;;;;5046980;28;20315;-73
2022/11/01 08:21:56;;;;;;;;;;;15.50;99.90;;;;;;5050690;28;19924;-73
2022/11/01 08:24:23;;;;;;;;;;;15.70;99.90;;;;;;5041461;28;20007;-72
2022/11/01 08:26:49;;;;;;;;;;;15.50;99.90;;;;;;5046044;28;19931;-73
2022/11/01 08:29:17;;;;;;;;;;;15.60;99.90;;;;;;5051088;28;19925;-73
2022/11/01 08:31:44;;;;;;;;;;;15.30;99.90;;;;;;5051729;28;19932;-73
2022/11/01 08:34:11;;;;;;;;;;;15.20;99.90;;;;;;5050161;28;20439;-72
2022/11/01 08:36:37;;;;;;;;;;;15.70;99.90;;;;;;5052240;28;19924;-72
2022/11/01 08:39:04;;;;;;;;;;;15.90;99.90;;;;;;5052116;28;20020;-71
2022/11/01 08:41:31;;;;;;;;;;;16.20;99.90;;;;;;5051988;28;19931;-72
2022/11/01 08:43:57;;;;;;;;;;;16.30;99.50;;;;;;5052715;28;20016;-72
2022/11/01 08:46:26;;;;;;;;;;;16.20;99.40;;;;;;5051704;28;19925;-72
2022/11/01 08:48:55;;;;;;;;;;;16.00;99.90;;;;;;5049090;28;20332;-72
2022/11/01 08:51:24;;;;;;;;;;;16.00;99.90;;;;;;5048444;28;19993;-72
2022/11/01 08:53:51;;;;;;;;;;;16.50;99.40;;;;;;5039460;28;19925;-73
2022/11/01 08:56:19;;;;;;;;;;;16.80;97.90;;;;;;5051197;28;19933;-72
2022/11/01 08:58:48;;;;;;;;;;;16.60;96.90;;;;;;5052493;28;19929;-72
2022/11/01 09:01:15;;;;;;;;;;;16.50;99.30;;;;;;5052108;28;20455;-71
2022/11/01 09:03:43;;;;;;;;;;;16.40;98.30;;;;;;5052096;28;19931;-71
2022/11/01 09:06:09;;;;;;;;;;;16.00;99.90;;;;;;5051003;28;19947;-72
2022/11/01 09:08:36;;;;;;;;;;;16.40;99.90;;;;;;5051066;28;19929;-72
2022/11/01 09:11:04;;;;;;;;;;;16.90;98.30;;;;;;5052296;28;19925;-73
2022/11/01 09:13:31;;;;;;;;;;;16.40;98.40;;;;;;5052162;28;20303;-73
2022/11/01 09:15:58;;;;;;;;;;;15.60;99.90;;;;;;5046610;28;20379;-72
2022/11/01 09:18:24;;;;;;;;;;;14.70;99.90;;;;;;5032418;28;20376;-72
2022/11/01 09:20:54;;;;;;;;;;;14.20;99.90;;;;;;5032214;28;20023;-73
2022/11/01 09:23:21;;;;;;;;;;;14.00;99.90;;;;;;5043108;28;19948;-73
2022/11/01 09:25:48;;;;;;;;;;;13.90;99.90;;;;;;5048740;28;19996;-73
2022/11/01 09:28:15;;;;;;;;;;;13.80;99.90;;;;;;5046086;28;20026;-74
2022/11/01 09:30:41;;;;;;;;;;;13.80;99.90;;;;;;5051887;28;20392;-73
2022/11/01 09:33:08;;;;;;;;;;;13.90;99.90;;;;;;5048707;28;20015;-71
2022/11/01 09:35:35;;;;;;;;;;;13.90;99.90;;;;;;5048008;28;20589;-72
2022/11/01 09:38:03;;;;;;;;;;;13.90;99.90;;;;;;5048206;28;19925;-72
2022/11/01 09:40:34;;;;;;;;;;;13.90;99.90;;;;;;5059243;28;20007;-72
2022/11/01 09:43:02;;;;;;;;;;;14.00;99.90;;;;;;5043848;28;19932;-72
2022/11/01 09:45:30;;;;;;;;;;;14.00;99.90;;;;;;5047925;28;20617;-72
2022/11/01 09:47:58;;;;;;;;;;;14.10;99.90;;;;;;5050853;28;19943;-73
2022/11/01 09:50:25;;;;;;;;;;;14.10;99.90;;;;;;5050451;28;19925;-73
2022/11/01 09:52:53;;;;;;;;;;;14.10;99.90;;;;;;5055426;28;20007;-73
2022/11/01 09:55:25;;;;;;;;;;;14.20;99.90;;;;;;5055723;28;19925;-73
2022/11/01 09:57:56;;;;;;;;;;;14.20;99.90;;;;;;5054069;28;19925;-72
2022/11/01 10:00:22;;;;;;;;;;;14.20;99.90;;;;;;5054004;28;19999;-73
2022/11/01 10:03:00;;;;;;;;;;;14.20;99.90;;;;;;5053193;28;19931;-73
2022/11/01 10:05:40;;;;;;;;;;;14.20;99.90;;;;;;5053110;28;19975;-73
2022/11/01 10:08:11;;;;;;;;;;;14.20;99.90;;;;;;5055388;28;20409;-72
2022/11/01 10:10:43;;;;;;;;;;;14.30;99.90;;;;;;5067808;28;20363;-73
2022/11/01 10:13:17;;;;;;;;;;;14.40;99.90;;;;;;5062984;28;20388;-74
2022/11/01 10:15:50;;;;;;;;;;;14.50;99.90;;;;;;5049789;28;19932;-72
2022/11/01 10:18:25;;;;;;;;;;;14.60;99.90;;;;;;5053326;28;19932;-73
2022/11/01 10:20:52;;;;;;;;;;;14.60;99.90;;;;;;5047454;28;19935;-73
2022/11/01 10:23:23;;;;;;;;;;;14.60;99.90;;;;;;5050439;28;19925;-72
2022/11/01 10:25:53;;;;;;;;;;;14.60;99.90;;;;;;5049625;28;19955;-72
2022/11/01 10:28:22;;;;;;;;;;;14.60;99.90;;;;;;5044600;28;19928;-72
2022/11/01 10:30:50;;;;;;;;;;;14.70;99.90;;;;;;5050004;28;19939;-73
2022/11/01 10:33:24;;;;;;;;;;;14.80;99.90;;;;;;5044326;28;20015;-72
2022/11/01 10:35:53;;;;;;;;;;;14.80;99.90;;;;;;5043350;28;19925;-71
2022/11/01 10:38:24;;;;;;;;;;;14.90;99.90;;;;;;5053337;28;19960;-73
2022/11/01 10:40:55;;;;;;;;;;;14.80;99.90;;;;;;5051637;28;19943;-72
2022/11/01 10:43:23;;;;;;;;;;;14.80;99.90;;;;;;5049127;28;20012;-72
2022/11/01 10:45:51;;;;;;;;;;;14.90;99.90;;;;;;5054562;28;19925;-73
2022/11/01 10:48:27;;;;;;;;;;;15.00;99.90;;;;;;5052489;28;19939;-72
2022/11/01 10:50:54;;;;;;;;;;;15.10;99.90;;;;;;5053450;28;20291;-73
2022/11/01 10:53:22;;;;;;;;;;;15.10;99.90;;;;;;5043195;28;19947;-72
2022/11/01 10:55:51;;;;;;;;;;;15.10;99.90;;;;;;5054796;28;19987;-73
2022/11/01 10:58:26;;;;;;;;;;;15.10;99.90;;;;;;5053208;28;20370;-71
2022/11/01 11:00:53;;;;;;;;;;;15.20;99.90;;;;;;5052525;28;19999;-72
2022/11/01 11:03:22;;;;;;;;;;;15.30;99.90;;;;;;5053269;28;19924;-72
2022/11/01 11:05:50;;;;;;;;;;;15.30;99.90;;;;;;5051974;28;20429;-73
2022/11/01 11:08:17;;;;;;;;;;;15.30;99.90;;;;;;5051319;28;19925;-73
2022/11/01 11:10:44;;;;;;;;;;;15.30;99.90;;;;;;5052723;28;19924;-68
2022/11/01 11:13:13;;;;;;;;;;;15.40;99.90;;;;;;5052719;28;19925;-73
2022/11/01 11:15:43;;;;;;;;;;;15.50;99.90;;;;;;5040891;28;19925;-72
2022/11/01 11:18:15;;;;;;;;;;;15.50;99.90;;;;;;5051311;28;19935;-74
2022/11/01 11:20:43;;;;;;;;;;;15.50;99.90;;;;;;5040003;28;20358;-73
2022/11/01 11:23:11;;;;;;;;;;;15.50;99.90;;;;;;5051893;28;20078;-74
2022/11/01 11:25:40;;;;;;;;;;;15.50;99.90;;;;;;5053734;28;19933;-74
2022/11/01 11:28:14;;;;;;;;;;;15.60;99.90;;;;;;5049735;28;19932;-73
2022/11/01 11:30:42;;;;;;;;;;;15.70;99.90;;;;;;5039883;28;19932;-73
2022/11/01 11:33:14;;;;;;;;;;;15.70;99.90;;;;;;5039430;28;20354;-75
2022/11/01 11:35:44;;;;;;;;;;;15.80;99.90;;;;;;5039691;28;19925;-74
2022/11/01 11:38:14;;;;;;;;;;;15.80;99.90;;;;;;5034180;28;19929;-74
2022/11/01 11:40:44;;;;;;;;;;;15.80;99.90;;;;;;5046376;28;20011;-73
2022/11/01 11:43:22;;;;;;;;;;;15.80;99.90;;;;;;5037901;28;19936;-72
2022/11/01 11:46:02;;;;;;;;;;;15.80;99.90;;;;;;5036829;28;20462;-73
2022/11/01 11:48:29;;;;;;;;;;;15.90;99.90;;;;;;5049971;28;20299;-73
2022/11/01 11:50:59;;;;;;;;;;;16.00;99.90;;;;;;5038931;28;19935;-73
2022/11/01 11:53:28;;;;;;;;;;;16.00;99.90;;;;;;5042070;28;19931;-73
2022/11/01 11:55:56;;;;;;;;;;;15.90;99.90;;;;;;5037739;28;20002;-70
2022/11/01 11:58:25;;;;;;;;;;;16.00;99.90;;;;;;5033821;28;19925;-70
2022/11/01 12:00:54;;;;;;;;;;;16.10;99.90;;;;;;5049900;28;19943;-71
2022/11/01 12:03:22;;;;;;;;;;;16.20;99.90;;;;;;5037920;28;20402;-70
2022/11/01 12:05:58;;;;;;;;;;;16.20;99.90;;;;;;5042732;28;20016;-71
2022/11/01 12:08:37;;;;;;;;;;;16.10;99.90;;;;;;5047350;28;19939;-73
2022/11/01 12:11:04;;;;;;;;;;;16.10;99.90;;;;;;5046827;28;20383;-74
2022/11/01 12:13:34;;;;;;;;;;;16.10;99.90;;;;;;5051306;28;19986;-73
2022/11/01 12:16:09;;;;;;;;;;;16.10;99.90;;;;;;5040779;28;19972;-74
2022/11/01 12:18:46;;;;;;;;;;;16.20;99.90;;;;;;5044092;28;20319;-72
2022/11/01 12:21:17;;;;;;;;;;;16.30;99.90;;;;;;5048549;28;20011;-72
2022/11/01 12:23:46;;;;;;;;;;;16.30;99.90;;;;;;5050624;28;19925;-75
2022/11/01 12:26:17;;;;;;;;;;;16.30;99.90;;;;;;5050313;28;20399;-75
2022/11/01 12:28:48;;;;;;;;;;;16.30;99.90;;;;;;5048887;28;19970;-73
2022/11/01 12:31:26;;;;;;;;;;;16.40;99.90;;;;;;5050992;28;19968;-74
2022/11/01 12:33:58;;;;;;;;;;;16.30;99.90;;;;;;5050415;28;19980;-74
2022/11/01 12:36:41;;;;;;;;;;;16.40;99.90;;;;;;5065966;28;20329;-74
2022/11/01 12:39:17;;;;;;;;;;;16.40;99.90;;;;;;5046782;28;19924;-74
2022/11/01 12:41:47;;;;;;;;;;;16.40;99.90;;;;;;5048830;28;19931;-74
2022/11/01 12:44:23;;;;;;;;;;;16.30;99.90;;;;;;5051920;28;20016;-74
2022/11/01 12:47:00;;;;;;;;;;;16.40;99.90;;;;;;5051699;28;19932;-74
2022/11/01 12:49:35;;;;;;;;;;;16.50;99.90;;;;;;5050381;28;20292;-73
2022/11/01 12:52:04;;;;;;;;;;;16.60;99.90;;;;;;5052159;28;19974;-73
2022/11/01 12:54:37;;;;;;;;;;;16.60;99.90;;;;;;5051173;28;19932;-73
2022/11/01 12:57:13;;;;;;;;;;;16.70;99.90;;;;;;5051522;28;19925;-73
2022/11/01 12:59:42;;;;;;;;;;;16.60;99.00;;;;;;5034493;28;19939;-73
2022/11/01 13:02:22;;;;;;;;;;;16.60;98.50;;;;;;5052695;28;19976;-75
2022/11/01 13:04:57;;;;;;;;;;;16.50;99.60;;;;;;5052818;28;19933;-74
2022/11/01 13:07:31;;;;;;;;;;;16.60;98.70;;;;;;5049965;28;19924;-73
2022/11/01 13:10:04;;;;;;;;;;;16.50;99.10;;;;;;5050722;28;19932;-75
2022/11/01 13:12:35;;;;;;;;;;;16.60;99.50;;;;;;5052177;28;19925;-73
2022/11/01 13:15:06;;;;;;;;;;;16.60;98.80;;;;;;5049435;28;20418;-74
2022/11/01 13:17:40;;;;;;;;;;;16.50;99.50;;;;;;5034623;28;20475;-74
2022/11/01 13:20:18;;;;;;;;;;;16.50;99.60;;;;;;5035924;28;19933;-73
2022/11/01 13:22:48;;;;;;;;;;;16.40;99.90;;;;;;5033983;28;19971;-74
2022/11/01 13:25:19;;;;;;;;;;;16.40;99.90;;;;;;5050340;28;20012;-75
2022/11/01 13:27:48;;;;;;;;;;;16.40;99.90;;;;;;5038986;28;19925;-75
2022/11/01 13:30:18;;;;;;;;;;;16.40;99.90;;;;;;5048878;28;20357;-74
2022/11/01 13:32:49;;;;;;;;;;;16.50;99.90;;;;;;5051501;28;19925;-74
2022/11/01 13:35:27;;;;;;;;;;;16.50;99.80;;;;;;5052496;28;19967;-74
2022/11/01 13:37:57;;;;;;;;;;;16.40;99.90;;;;;;5046914;28;19932;-73
2022/11/01 13:40:42;;;;;;;;;;;16.40;99.90;;;;;;5046704;28;20310;-73
2022/11/01 13:43:11;;;;;;;;;;;16.30;99.90;;;;;;5037177;28;19954;-74
2022/11/01 13:46:05;;;;;;;;;;;16.40;99.90;;;;;;5040050;28;19970;-74
2022/11/01 13:48:37;;;;;;;;;;;16.30;99.90;;;;;;5052088;28;19939;-74
2022/11/01 13:51:24;;;;;;;;;;;16.30;99.90;;;;;;5048766;28;19932;-74
2022/11/01 13:53:55;;;;;;;;;;;16.30;99.90;;;;;;5042294;28;20299;-73
2022/11/01 13:56:26;;;;;;;;;;;16.30;99.90;;;;;;5051493;28;19932;-72
2022/11/01 13:58:53;;;;;;;;;;;16.30;99.90;;;;;;5050885;28;19994;-74
2022/11/01 14:01:28;;;;;;;;;;;16.30;99.90;;;;;;5051445;28;19978;-74
2022/11/01 14:04:08;;;;;;;;;;;16.30;99.90;;;;;;5050464;28;20019;-73
2022/11/01 14:06:43;;;;;;;;;;;16.30;99.90;;;;;;5051661;28;19924;-74
2022/11/01 14:09:31;;;;;;;;;;;16.20;99.90;;;;;;5049365;28;19939;-73
2022/11/01 14:12:10;;;;;;;;;;;16.20;99.90;;;;;;5036234;28;20363;-74
2022/11/01 14:14:55;;;;;;;;;;;16.20;99.90;;;;;;5055908;28;20016;-74
2022/11/01 14:17:53;;;;;;;;;;;16.20;99.90;;;;;;5048159;28;19924;-74
2022/11/01 14:20:36;;;;;;;;;;;16.20;99.90;;;;;;4990351;28;19937;-75
2022/11/01 14:23:18;;;;;;;;;;;16.20;99.90;;;;;;5035824;28;19944;-75
2022/11/01 14:25:46;;;;;;;;;;;16.20;99.90;;;;;;5041452;28;20411;-75
2022/11/01 14:28:22;;;;;;;;;;;16.20;99.90;;;;;;5041408;28;19979;-74
2022/11/01 14:30:52;;;;;;;;;;;16.20;99.90;;;;;;5044188;28;19925;-74
2022/11/01 14:33:20;;;;;;;;;;;16.20;99.90;;;;;;5047791;28;19947;-84
2022/11/01 14:35:51;;;;;;;;;;;16.20;99.90;;;;;;5060138;28;19925;-85